Time;durP1;ratioP1;P1;durP2;ratioP2;P2;SDS_P1;SDS_P2;PMS_P1;PMS_P2;Temp;Humidity;BMP_temperature;BMP_pressure;BME280_temperature;BME280_humidity;BME280_pressure;Samples;Min_cycle;Max_cycle;Signal;HPM_P1;HPM_P2
2024/01/25 00:01:40;;;;;;;4.22;3.47;;;7.40;65.00;;;;;;5100019;28;20034;-77
2024/01/25 00:04:05;;;;;;;3.08;2.78;;;7.40;64.90;;;;;;5100625;28;20016;-75
2024/01/25 00:06:31;;;;;;;3.78;3.38;;;7.40;64.90;;;;;;5098918;28;20420;-77
2024/01/25 00:08:57;;;;;;;4.03;3.60;;;7.40;64.90;;;;;;5085914;28;20021;-76
2024/01/25 00:11:23;;;;;;;4.18;3.45;;;7.40;64.90;;;;;;5084793;28;20474;-77
2024/01/25 00:13:49;;;;;;;3.92;3.53;;;7.40;64.90;;;;;;5079954;28;20027;-77
2024/01/25 00:16:15;;;;;;;3.50;3.20;;;7.40;65.00;;;;;;5097718;28;20361;-76
2024/01/25 00:18:40;;;;;;;3.72;3.35;;;7.40;65.00;;;;;;5097507;28;20031;-77
2024/01/25 00:21:06;;;;;;;3.58;3.25;;;7.40;65.00;;;;;;5079275;28;20030;-77
2024/01/25 00:23:33;;;;;;;4.30;3.53;;;7.40;65.00;;;;;;5097643;28;20044;-77
2024/01/25 00:25:59;;;;;;;4.22;3.47;;;7.40;65.00;;;;;;5097893;28;20063;-76
2024/01/25 00:28:26;;;;;;;3.67;3.33;;;7.40;65.00;;;;;;5097290;28;20144;-77
2024/01/25 00:30:52;;;;;;;3.25;2.95;;;7.30;64.90;;;;;;5079079;28;20059;-76
2024/01/25 00:33:18;;;;;;;3.47;3.17;;;7.40;65.00;;;;;;5097292;28;20048;-76
2024/01/25 00:35:44;;;;;;;3.60;3.30;;;7.40;65.00;;;;;;5079801;28;20035;-76
2024/01/25 00:38:10;;;;;;;3.85;3.15;;;7.40;65.00;;;;;;5079047;28;20479;-77
2024/01/25 00:40:37;;;;;;;3.80;3.40;;;7.40;65.00;;;;;;5079122;28;20051;-77
2024/01/25 00:43:03;;;;;;;3.85;3.25;;;7.40;65.00;;;;;;5097120;28;20077;-78
2024/01/25 00:45:29;;;;;;;4.28;3.72;;;7.30;65.00;;;;;;5079636;28;20028;-77
2024/01/25 00:47:55;;;;;;;3.42;3.13;;;7.40;65.00;;;;;;5078676;28;20020;-77
2024/01/25 00:50:23;;;;;;;4.13;3.40;;;7.40;65.00;;;;;;5078660;28;20020;-77
2024/01/25 00:52:50;;;;;;;3.72;3.35;;;7.40;65.00;;;;;;5096858;28;20030;-77
2024/01/25 00:55:16;;;;;;;3.85;3.33;;;7.40;65.00;;;;;;5078559;28;20047;-76
2024/01/25 00:57:42;;;;;;;4.32;3.67;;;7.30;65.00;;;;;;5078795;28;20353;-77
2024/01/25 01:00:08;;;;;;;3.55;3.05;;;7.40;65.00;;;;;;5096982;28;20024;-77
2024/01/25 01:02:44;;;;;;;3.78;3.38;;;7.40;65.10;;;;;;5079093;28;20346;-77
2024/01/25 01:05:12;;;;;;;4.25;3.63;;;7.40;65.10;;;;;;5078272;28;20089;-76
2024/01/25 01:07:42;;;;;;;4.13;3.40;;;7.40;65.00;;;;;;5077140;28;20028;-77
2024/01/25 01:10:09;;;;;;;3.70;3.30;;;7.40;65.00;;;;;;5096544;28;20028;-76
2024/01/25 01:12:35;;;;;;;4.07;3.67;;;7.40;65.10;;;;;;5078996;28;20024;-77
2024/01/25 01:15:01;;;;;;;3.67;3.20;;;7.40;65.00;;;;;;5078017;28;20032;-76
2024/01/25 01:17:27;;;;;;;3.95;3.30;;;7.40;65.10;;;;;;5096787;28;20028;-76
2024/01/25 01:19:53;;;;;;;3.78;3.17;;;7.40;65.00;;;;;;5096586;28;20015;-76
2024/01/25 01:22:19;;;;;;;4.07;3.20;;;7.40;65.10;;;;;;5079495;28;20439;-78
2024/01/25 01:24:44;;;;;;;3.53;3.05;;;7.40;65.10;;;;;;5097284;28;20478;-76
2024/01/25 01:27:10;;;;;;;3.55;3.25;;;7.40;65.10;;;;;;5096563;28;20038;-77
2024/01/25 01:29:36;;;;;;;3.90;3.42;;;7.40;65.10;;;;;;5096724;28;20028;-76
2024/01/25 01:32:02;;;;;;;4.32;3.58;;;7.40;65.10;;;;;;5078357;28;20020;-77
2024/01/25 01:34:28;;;;;;;3.38;2.90;;;7.40;65.10;;;;;;5078086;28;20370;-76
2024/01/25 01:36:54;;;;;;;3.72;3.33;;;7.40;65.10;;;;;;5098556;28;20057;-75
2024/01/25 01:39:20;;;;;;;3.80;3.20;;;7.40;65.10;;;;;;5080943;28;20031;-77
2024/01/25 01:41:49;;;;;;;3.60;3.30;;;7.40;65.10;;;;;;5080254;28;20390;-76
2024/01/25 01:44:15;;;;;;;3.58;3.28;;;7.30;65.00;;;;;;5098643;28;20078;-77
2024/01/25 01:46:42;;;;;;;4.05;3.53;;;7.40;65.10;;;;;;5081734;28;20032;-77
2024/01/25 01:49:12;;;;;;;3.42;3.10;;;7.40;65.10;;;;;;5097128;28;20020;-78
2024/01/25 01:51:39;;;;;;;3.47;2.95;;;7.40;65.10;;;;;;5077913;28;20027;-76
2024/01/25 01:54:09;;;;;;;3.63;3.33;;;7.40;65.10;;;;;;5078336;28;20351;-75
2024/01/25 01:56:35;;;;;;;3.40;3.10;;;7.40;65.10;;;;;;5095636;28;20058;-75
2024/01/25 01:59:10;;;;;;;3.30;3.00;;;7.40;65.10;;;;;;5095983;28;20028;-76
2024/01/25 02:01:36;;;;;;;3.92;3.35;;;7.40;65.10;;;;;;5078112;28;20469;-76
2024/01/25 02:04:01;;;;;;;3.95;3.55;;;7.40;65.10;;;;;;5095985;28;20024;-76
2024/01/25 02:06:27;;;;;;;3.90;3.50;;;7.40;65.10;;;;;;5077186;28;20032;-75
2024/01/25 02:08:53;;;;;;;3.38;3.08;;;7.40;65.10;;;;;;5095501;28;20020;-76
2024/01/25 02:11:22;;;;;;;4.25;3.40;;;7.40;65.10;;;;;;5077111;28;20026;-77
2024/01/25 02:13:48;;;;;;;3.58;3.10;;;7.40;65.10;;;;;;5077118;28;20020;-77
2024/01/25 02:16:17;;;;;;;3.65;3.20;;;7.40;65.10;;;;;;5095232;28;20081;-77
2024/01/25 02:18:43;;;;;;;3.45;3.13;;;7.40;65.10;;;;;;5076810;28;20016;-77
2024/01/25 02:21:09;;;;;;;3.40;3.10;;;7.40;65.20;;;;;;5077076;28;20023;-77
2024/01/25 02:23:35;;;;;;;3.63;3.20;;;7.40;65.10;;;;;;5095345;28;20024;-77
2024/01/25 02:26:00;;;;;;;3.70;3.30;;;7.40;65.10;;;;;;5076447;28;20034;-76
2024/01/25 02:28:26;;;;;;;3.28;2.95;;;7.40;65.10;;;;;;5076708;28;20040;-76
2024/01/25 02:30:52;;;;;;;3.53;3.22;;;7.40;65.10;;;;;;5095278;28;20027;-75
2024/01/25 02:33:18;;;;;;;3.75;3.35;;;7.40;65.10;;;;;;5077570;28;20115;-77
2024/01/25 02:35:44;;;;;;;5.03;4.15;;;7.40;65.10;;;;;;5076857;28;20510;-76
2024/01/25 02:38:09;;;;;;;3.72;3.40;;;7.40;65.20;;;;;;5076599;28;20023;-77
2024/01/25 02:40:35;;;;;;;4.35;3.35;;;7.40;65.10;;;;;;5095058;28;20353;-76
2024/01/25 02:43:01;;;;;;;4.03;3.58;;;7.40;65.10;;;;;;5077091;28;20450;-77
2024/01/25 02:45:26;;;;;;;3.13;2.83;;;7.40;65.20;;;;;;5094682;28;20027;-76
2024/01/25 02:47:52;;;;;;;3.70;3.40;;;7.40;65.20;;;;;;5094469;28;20032;-76
2024/01/25 02:50:18;;;;;;;3.40;3.10;;;7.40;65.20;;;;;;5094546;28;20043;-76
2024/01/25 02:52:44;;;;;;;3.88;3.45;;;7.40;65.20;;;;;;5076535;28;20023;-77
2024/01/25 02:55:10;;;;;;;3.80;3.40;;;7.40;65.10;;;;;;5076063;28;20474;-76
2024/01/25 02:57:35;;;;;;;3.83;3.20;;;7.40;65.20;;;;;;5095082;28;20024;-77
2024/01/25 03:00:01;;;;;;;3.28;2.97;;;7.40;65.20;;;;;;5076238;28;20023;-77
2024/01/25 03:02:27;;;;;;;3.38;3.08;;;7.40;65.20;;;;;;5076350;28;20028;-76
2024/01/25 03:04:53;;;;;;;3.38;3.08;;;7.40;65.20;;;;;;5076042;28;20103;-77
2024/01/25 03:07:19;;;;;;;3.53;3.17;;;7.40;65.20;;;;;;5093994;28;20028;-76
2024/01/25 03:09:44;;;;;;;3.38;3.08;;;7.40;65.20;;;;;;5076200;28;20108;-76
2024/01/25 03:12:10;;;;;;;3.85;3.25;;;7.40;65.20;;;;;;5075808;28;20027;-76
2024/01/25 03:14:36;;;;;;;3.35;3.03;;;7.40;65.20;;;;;;5094271;28;20361;-77
2024/01/25 03:17:02;;;;;;;3.42;3.08;;;7.40;65.20;;;;;;5077481;28;20024;-76
2024/01/25 03:19:28;;;;;;;3.28;2.97;;;7.40;65.20;;;;;;5078687;28;20042;-76
2024/01/25 03:21:54;;;;;;;3.30;2.97;;;7.40;65.20;;;;;;5078169;28;20024;-76
2024/01/25 03:24:21;;;;;;;3.35;3.05;;;7.40;65.20;;;;;;5095431;28;20027;-77
2024/01/25 03:26:46;;;;;;;3.83;3.20;;;7.30;65.10;;;;;;5096285;28;20047;-78
2024/01/25 03:29:12;;;;;;;3.17;2.88;;;7.40;65.20;;;;;;5095602;28;20040;-76
2024/01/25 03:31:38;;;;;;;3.45;3.15;;;7.40;65.20;;;;;;5076259;28;20016;-76
2024/01/25 03:34:05;;;;;;;3.20;2.90;;;7.40;65.20;;;;;;5094881;28;20442;-77
2024/01/25 03:36:31;;;;;;;3.60;3.30;;;7.40;65.20;;;;;;5077477;28;20055;-77
2024/01/25 03:38:57;;;;;;;3.38;3.08;;;7.40;65.20;;;;;;5076495;28;20115;-76
2024/01/25 03:41:23;;;;;;;3.10;2.80;;;7.40;65.20;;;;;;5076285;28;20107;-77
2024/01/25 03:43:49;;;;;;;3.58;3.25;;;7.30;65.20;;;;;;5076487;28;20027;-76
2024/01/25 03:46:15;;;;;;;3.65;3.17;;;7.40;65.20;;;;;;5093749;28;20028;-77
2024/01/25 03:48:42;;;;;;;3.50;3.20;;;7.40;65.20;;;;;;5093611;28;20081;-78
2024/01/25 03:51:08;;;;;;;3.30;3.00;;;7.40;65.20;;;;;;5093829;28;20016;-76
2024/01/25 03:53:34;;;;;;;3.70;3.30;;;7.40;65.20;;;;;;5093521;28;20047;-77
2024/01/25 03:56:00;;;;;;;3.17;2.80;;;7.40;65.80;;;;;;5075354;28;20077;-76
2024/01/25 03:58:25;;;;;;;3.30;3.00;;;7.40;65.20;;;;;;5075752;28;20442;-77
2024/01/25 04:00:51;;;;;;;3.75;3.20;;;7.40;65.20;;;;;;5093491;28;20027;-77
2024/01/25 04:03:17;;;;;;;3.45;3.10;;;7.40;65.20;;;;;;5094199;28;20047;-77
2024/01/25 04:05:43;;;;;;;3.58;3.28;;;7.40;65.20;;;;;;5094293;28;20063;-76
2024/01/25 04:08:09;;;;;;;3.92;3.20;;;7.40;65.20;;;;;;5101022;28;20028;-77
2024/01/25 04:10:35;;;;;;;3.45;3.15;;;7.40;65.20;;;;;;5081523;28;20535;-77
2024/01/25 04:13:01;;;;;;;3.47;3.17;;;7.40;65.20;;;;;;5075761;28;20358;-76
2024/01/25 04:15:27;;;;;;;3.28;2.97;;;7.40;65.30;;;;;;5075634;28;20377;-77
2024/01/25 04:17:53;;;;;;;3.25;2.95;;;7.40;65.20;;;;;;5076148;28;20016;-77
2024/01/25 04:20:19;;;;;;;3.30;3.00;;;7.40;65.30;;;;;;5093496;28;20358;-78
2024/01/25 04:22:45;;;;;;;3.97;3.08;;;7.40;65.30;;;;;;5075543;28;20160;-77
2024/01/25 04:25:11;;;;;;;3.80;3.30;;;7.40;65.30;;;;;;5093593;28;20030;-76
2024/01/25 04:27:40;;;;;;;3.47;3.00;;;7.40;65.30;;;;;;5075456;28;20093;-78
2024/01/25 04:30:07;;;;;;;3.42;3.05;;;7.40;65.20;;;;;;5075439;28;20028;-76
2024/01/25 04:32:33;;;;;;;3.30;3.00;;;7.40;65.30;;;;;;5093835;28;20438;-76
2024/01/25 04:34:59;;;;;;;3.80;3.35;;;7.40;65.30;;;;;;5075599;28;20456;-77
2024/01/25 04:37:24;;;;;;;3.35;2.90;;;7.40;65.30;;;;;;5075289;28;20111;-78
2024/01/25 04:39:50;;;;;;;3.40;3.10;;;7.40;65.30;;;;;;5076185;28;20024;-77
2024/01/25 04:42:16;;;;;;;3.28;2.97;;;7.40;65.20;;;;;;5094722;28;20024;-77
2024/01/25 04:44:42;;;;;;;3.33;3.03;;;7.40;65.30;;;;;;5097064;28;20024;-78
2024/01/25 04:47:09;;;;;;;3.25;2.95;;;7.40;65.30;;;;;;5078688;28;20036;-77
2024/01/25 04:49:35;;;;;;;3.30;3.00;;;7.40;65.30;;;;;;5097316;28;20062;-76
2024/01/25 04:52:01;;;;;;;3.72;3.13;;;7.40;65.30;;;;;;5096863;28;20385;-77
2024/01/25 04:54:27;;;;;;;3.35;3.03;;;7.40;65.30;;;;;;5078154;28;20201;-77
2024/01/25 04:56:53;;;;;;;3.67;3.10;;;7.40;65.30;;;;;;5078762;28;20370;-77
2024/01/25 04:59:18;;;;;;;3.08;2.83;;;7.40;65.30;;;;;;5097847;28;20024;-77
2024/01/25 05:01:44;;;;;;;3.20;2.90;;;7.40;65.30;;;;;;5100047;28;20091;-77
2024/01/25 05:04:10;;;;;;;3.20;2.90;;;7.40;65.30;;;;;;5099599;28;20070;-78
2024/01/25 05:06:36;;;;;;;3.78;3.25;;;7.40;65.30;;;;;;5098957;28;20056;-73
2024/01/25 05:09:02;;;;;;;3.42;3.13;;;7.40;65.30;;;;;;5100331;28;20027;-78
2024/01/25 05:11:28;;;;;;;3.40;3.08;;;7.40;65.30;;;;;;5081074;28;20442;-79
2024/01/25 05:13:54;;;;;;;3.33;3.00;;;7.40;65.30;;;;;;5079026;28;20077;-77
2024/01/25 05:16:20;;;;;;;3.53;3.20;;;7.40;65.30;;;;;;5078561;28;20028;-75
2024/01/25 05:18:46;;;;;;;3.67;3.33;;;7.50;65.30;;;;;;5078387;28;20157;-76
2024/01/25 05:21:11;;;;;;;3.13;2.83;;;7.40;65.30;;;;;;5095984;28;20032;-78
2024/01/25 05:23:37;;;;;;;3.15;2.85;;;7.40;65.20;;;;;;5078333;28;20023;-79
2024/01/25 05:26:03;;;;;;;3.45;3.13;;;7.40;65.30;;;;;;5096796;28;20047;-84
2024/01/25 05:28:29;;;;;;;3.47;3.17;;;7.40;65.80;;;;;;5096889;28;20024;-80
2024/01/25 05:30:55;;;;;;;3.40;3.05;;;7.40;65.30;;;;;;5078825;28;20020;-78
2024/01/25 05:33:20;;;;;;;3.85;3.10;;;7.40;65.30;;;;;;5078113;28;20016;-73
2024/01/25 05:35:46;;;;;;;3.78;3.20;;;7.40;65.30;;;;;;5077977;28;20024;-73
2024/01/25 05:38:12;;;;;;;3.63;3.30;;;7.40;65.30;;;;;;5095673;28;20024;-74
2024/01/25 05:40:38;;;;;;;3.70;3.20;;;7.40;65.30;;;;;;5077506;28;20024;-72
2024/01/25 05:43:05;;;;;;;3.38;3.00;;;7.40;65.30;;;;;;5077876;28;20414;-72
2024/01/25 05:45:30;;;;;;;3.97;3.22;;;7.40;65.30;;;;;;5096206;28;20027;-73
2024/01/25 05:47:56;;;;;;;68.63;22.50;;;7.40;65.30;;;;;;5078112;28;20358;-74
2024/01/25 05:50:22;;;;;;;34.35;15.13;;;7.50;72.00;;;;;;5095071;28;20027;-73
2024/01/25 05:52:48;;;;;;;26.70;15.23;;;7.80;70.50;;;;;;5077646;28;20024;-70
2024/01/25 05:55:14;;;;;;;28.73;13.57;;;8.00;69.80;;;;;;5076084;28;20139;-73
2024/01/25 05:57:44;;;;;;;23.95;12.85;;;8.00;69.40;;;;;;5077677;28;20427;-71
2024/01/25 06:00:12;;;;;;;21.35;11.32;;;8.10;69.20;;;;;;5076885;28;20016;-72
2024/01/25 06:02:38;;;;;;;21.02;11.82;;;8.00;69.00;;;;;;5095715;28;20065;-72
2024/01/25 06:05:04;;;;;;;17.33;10.38;;;8.00;68.90;;;;;;5095157;28;20052;-70
2024/01/25 06:07:30;;;;;;;16.45;10.35;;;8.00;68.80;;;;;;5095322;28;20058;-72
2024/01/25 06:09:56;;;;;;;13.68;8.93;;;7.90;68.80;;;;;;5077012;28;20434;-69
2024/01/25 06:12:23;;;;;;;14.60;9.55;;;7.90;68.80;;;;;;5094568;28;20044;-70
2024/01/25 06:14:49;;;;;;;13.55;7.78;;;7.80;68.80;;;;;;5077258;28;20041;-69
2024/01/25 06:17:14;;;;;;;12.23;8.02;;;7.80;68.90;;;;;;5076935;28;20047;-70
2024/01/25 06:19:40;;;;;;;14.65;7.32;;;7.70;68.80;;;;;;5076970;28;20018;-69
2024/01/25 06:22:06;;;;;;;12.10;7.85;;;7.70;68.80;;;;;;5076460;28;20016;-69
2024/01/25 06:24:32;;;;;;;10.35;7.47;;;7.70;68.80;;;;;;5094317;28;20055;-70
2024/01/25 06:26:58;;;;;;;10.20;7.13;;;7.60;68.80;;;;;;5095124;28;20035;-68
2024/01/25 06:29:24;;;;;;;8.63;6.10;;;7.60;68.80;;;;;;5110290;28;20032;-70
2024/01/25 06:31:49;;;;;;;9.25;6.30;;;7.50;68.70;;;;;;5076693;28;20024;-69
2024/01/25 06:34:15;;;;;;;9.50;6.72;;;7.50;68.70;;;;;;5094227;28;20098;-70
2024/01/25 06:36:41;;;;;;;8.23;6.68;;;7.50;68.70;;;;;;5094190;28;20378;-68
2024/01/25 06:39:07;;;;;;;7.65;6.15;;;7.50;68.70;;;;;;5094427;28;20020;-69
2024/01/25 06:41:33;;;;;;;7.32;5.28;;;7.50;68.70;;;;;;5076050;28;20028;-70
2024/01/25 06:43:59;;;;;;;8.10;5.85;;;7.50;68.70;;;;;;5094059;28;20024;-72
2024/01/25 06:46:25;;;;;;;7.68;5.85;;;7.40;68.60;;;;;;5110365;28;20024;-69
2024/01/25 06:48:51;;;;;;;8.43;5.47;;;7.40;68.60;;;;;;5094117;28;20020;-71
2024/01/25 06:51:17;;;;;;;7.35;5.47;;;7.40;68.60;;;;;;5096919;28;20038;-68
2024/01/25 06:53:43;;;;;;;8.25;5.93;;;7.40;68.60;;;;;;5095177;28;20450;-66
2024/01/25 06:56:09;;;;;;;7.93;5.63;;;7.40;68.60;;;;;;5095094;28;20052;-70
2024/01/25 06:58:34;;;;;;;6.25;5.03;;;7.40;68.60;;;;;;5110556;28;20056;-70
2024/01/25 07:01:00;;;;;;;6.30;5.25;;;7.40;68.60;;;;;;5110075;28;20400;-68
2024/01/25 07:03:26;;;;;;;6.97;5.20;;;7.40;68.60;;;;;;5111007;28;20024;-68
2024/01/25 07:05:52;;;;;;;6.25;5.05;;;7.40;68.60;;;;;;5093966;28;20425;-70
2024/01/25 07:08:18;;;;;;;8.00;5.20;;;7.40;68.50;;;;;;5109977;28;20073;-69
2024/01/25 07:10:45;;;;;;;6.78;5.70;;;7.40;68.50;;;;;;5076895;28;20457;-69
2024/01/25 07:13:11;;;;;;;8.07;5.68;;;7.40;68.40;;;;;;5094023;28;20462;-70
2024/01/25 07:15:37;;;;;;;6.55;5.40;;;7.50;68.50;;;;;;5094078;28;20107;-69
2024/01/25 07:18:03;;;;;;;7.28;5.60;;;7.50;68.40;;;;;;5093911;28;20465;-70
2024/01/25 07:20:29;;;;;;;8.10;4.97;;;7.50;68.40;;;;;;5094383;28;20016;-72
2024/01/25 07:22:55;;;;;;;20.10;12.75;;;7.50;68.40;;;;;;5076088;28;20031;-71
2024/01/25 07:25:21;;;;;;;27.60;17.02;;;7.60;73.40;;;;;;5076345;28;20024;-73
2024/01/25 07:27:49;;;;;;;27.85;19.40;;;7.90;72.60;;;;;;5075500;28;20385;-75
2024/01/25 07:30:15;;;;;;;21.58;15.23;;;8.10;71.90;;;;;;5093357;28;20012;-71
2024/01/25 07:32:42;;;;;;;18.00;14.25;;;8.10;71.60;;;;;;5094767;28;20098;-71
2024/01/25 07:35:11;;;;;;;19.40;14.13;;;8.20;71.20;;;;;;5093851;28;20024;-70
2024/01/25 07:37:39;;;;;;;17.02;12.07;;;8.20;71.00;;;;;;5075907;28;20442;-72
2024/01/25 07:40:06;;;;;;;15.70;10.57;;;8.20;70.90;;;;;;5094483;28;20044;-73
2024/01/25 07:42:32;;;;;;;11.32;8.80;;;8.20;70.90;;;;;;5092985;28;20020;-72
2024/01/25 07:44:58;;;;;;;12.68;8.77;;;8.10;70.80;;;;;;5075753;28;20110;-70
2024/01/25 07:47:24;;;;;;;10.88;7.32;;;8.10;70.80;;;;;;5094175;28;20483;-71
2024/01/25 07:49:50;;;;;;;10.73;6.63;;;8.10;70.80;;;;;;5076420;28;20016;-72
2024/01/25 07:52:15;;;;;;;8.45;6.95;;;8.10;70.70;;;;;;5093465;28;20103;-72
2024/01/25 07:54:41;;;;;;;7.15;5.63;;;8.10;70.70;;;;;;5075373;28;20039;-75
2024/01/25 07:57:07;;;;;;;7.35;5.50;;;8.00;70.60;;;;;;5075867;28;20046;-72
2024/01/25 07:59:33;;;;;;;7.82;5.75;;;8.00;70.50;;;;;;5093470;28;20018;-72
2024/01/25 08:01:59;;;;;;;7.35;5.78;;;8.00;70.50;;;;;;5094039;28;20471;-72
2024/01/25 08:04:25;;;;;;;6.55;5.07;;;8.00;70.50;;;;;;5093726;28;20020;-73
2024/01/25 08:06:52;;;;;;;6.53;4.90;;;7.90;70.30;;;;;;5093429;28;20031;-73
2024/01/25 08:09:18;;;;;;;6.60;5.25;;;7.90;70.40;;;;;;5093373;28;20024;-73
2024/01/25 08:11:44;;;;;;;6.53;4.95;;;7.90;70.30;;;;;;5075828;28;20052;-74
2024/01/25 08:14:11;;;;;;;6.43;4.90;;;7.90;70.20;;;;;;5075471;28;20024;-73
2024/01/25 08:16:37;;;;;;;6.00;4.72;;;7.90;70.20;;;;;;5093930;28;20045;-73
2024/01/25 08:19:04;;;;;;;6.45;4.90;;;7.90;70.20;;;;;;5079552;28;20105;-73
2024/01/25 08:21:30;;;;;;;6.45;4.63;;;7.90;70.10;;;;;;5098252;28;20166;-73
2024/01/25 08:23:56;;;;;;;6.53;4.40;;;7.90;70.00;;;;;;5098455;28;20440;-74
2024/01/25 08:26:22;;;;;;;6.05;4.43;;;7.90;70.00;;;;;;5080034;28;20036;-75
2024/01/25 08:28:47;;;;;;;5.97;4.75;;;7.90;69.90;;;;;;5081466;28;20035;-75
2024/01/25 08:31:13;;;;;;;5.55;4.47;;;7.90;69.90;;;;;;5102377;28;20498;-74
2024/01/25 08:33:47;;;;;;;5.70;4.65;;;7.90;69.90;;;;;;5097676;28;20020;-73
2024/01/25 08:36:19;;;;;;;5.55;4.20;;;7.90;69.90;;;;;;5097774;28;20024;-76
2024/01/25 08:38:45;;;;;;;6.55;5.00;;;7.90;70.00;;;;;;5080059;28;20345;-75
2024/01/25 08:41:11;;;;;;;5.22;4.38;;;7.90;69.90;;;;;;5096187;28;20091;-76
2024/01/25 08:43:37;;;;;;;5.65;4.10;;;7.90;69.90;;;;;;5096933;28;20028;-75
2024/01/25 08:46:03;;;;;;;4.93;4.20;;;7.90;70.50;;;;;;5078518;28;20074;-73
2024/01/25 08:48:29;;;;;;;4.60;3.80;;;7.90;69.90;;;;;;5078449;28;20016;-74
2024/01/25 08:50:54;;;;;;;5.05;4.00;;;7.90;69.80;;;;;;5096708;28;20055;-74
2024/01/25 08:53:27;;;;;;;4.90;4.13;;;7.90;69.80;;;;;;5078574;28;20031;-75
2024/01/25 08:55:53;;;;;;;5.60;4.30;;;7.90;69.80;;;;;;5077844;28;20489;-73
2024/01/25 08:58:20;;;;;;;4.72;3.92;;;7.90;69.90;;;;;;5096358;28;20502;-74
2024/01/25 09:00:45;;;;;;;5.32;4.00;;;7.90;69.80;;;;;;5096250;28;20035;-73
2024/01/25 09:03:11;;;;;;;5.22;3.72;;;7.90;69.80;;;;;;5096150;28;20358;-73
2024/01/25 09:05:40;;;;;;;4.72;3.65;;;8.00;69.90;;;;;;5095494;28;20123;-74
2024/01/25 09:08:07;;;;;;;4.88;3.80;;;8.00;69.90;;;;;;5078641;28;20161;-73
2024/01/25 09:10:33;;;;;;;4.95;3.78;;;8.00;69.90;;;;;;5078392;28;20047;-74
2024/01/25 09:12:58;;;;;;;5.45;3.90;;;8.00;69.80;;;;;;5096326;28;20438;-73
2024/01/25 09:15:24;;;;;;;4.53;3.72;;;8.00;69.80;;;;;;5077695;28;20032;-73
2024/01/25 09:17:50;;;;;;;5.70;3.88;;;8.00;69.80;;;;;;5095997;28;20036;-73
2024/01/25 09:20:15;;;;;;;6.00;3.90;;;8.00;69.80;;;;;;5077323;28;20031;-71
2024/01/25 09:22:42;;;;;;;5.03;3.70;;;8.00;69.80;;;;;;5095226;28;20149;-72
2024/01/25 09:25:07;;;;;;;4.53;3.60;;;8.00;69.80;;;;;;5095857;28;20024;-72
2024/01/25 09:27:33;;;;;;;5.47;3.70;;;8.00;69.80;;;;;;5095761;28;20354;-73
2024/01/25 09:29:59;;;;;;;4.07;3.65;;;8.00;69.80;;;;;;5094306;28;20020;-75
2024/01/25 09:32:25;;;;;;;4.82;3.60;;;8.00;69.80;;;;;;5095819;28;20020;-73
2024/01/25 09:34:51;;;;;;;4.47;3.45;;;8.00;69.90;;;;;;5077384;28;20020;-74
2024/01/25 09:37:17;;;;;;;4.30;3.53;;;8.00;70.00;;;;;;5111700;28;20032;-72
2024/01/25 09:39:43;;;;;;;4.03;3.38;;;8.00;70.10;;;;;;5095420;28;20012;-73
2024/01/25 09:42:10;;;;;;;4.32;3.70;;;8.00;70.00;;;;;;5111443;28;20020;-73
2024/01/25 09:44:38;;;;;;;4.05;3.30;;;8.00;70.00;;;;;;5095425;28;20066;-73
2024/01/25 09:47:05;;;;;;;3.70;3.20;;;8.00;70.00;;;;;;5077401;28;20119;-75
2024/01/25 09:49:31;;;;;;;3.45;3.15;;;8.10;70.10;;;;;;5068331;28;20020;-73
2024/01/25 09:51:58;;;;;;;4.15;3.08;;;8.10;70.10;;;;;;5075491;28;20055;-72
2024/01/25 09:54:25;;;;;;;3.40;2.97;;;8.10;70.10;;;;;;5057298;28;20106;-73
2024/01/25 09:56:54;;;;;;;5.70;3.22;;;8.10;70.10;;;;;;5057485;28;20028;-74
2024/01/25 09:59:20;;;;;;;3.75;3.13;;;8.10;70.10;;;;;;5087505;28;20076;-75
2024/01/25 10:01:48;;;;;;;4.25;3.13;;;8.20;70.10;;;;;;5095407;28;20024;-75
2024/01/25 10:04:15;;;;;;;3.90;3.30;;;8.30;70.20;;;;;;5095850;28;20027;-72
2024/01/25 10:06:41;;;;;;;3.60;2.90;;;8.30;70.10;;;;;;5095683;28;20386;-74
2024/01/25 10:09:09;;;;;;;3.67;3.22;;;8.40;70.00;;;;;;5095703;28;20020;-72
2024/01/25 10:11:35;;;;;;;3.60;3.05;;;8.30;70.00;;;;;;5111751;28;20023;-72
2024/01/25 10:14:02;;;;;;;4.07;3.00;;;8.40;70.10;;;;;;5095207;28;20024;-73
2024/01/25 10:16:29;;;;;;;3.85;3.03;;;8.40;70.10;;;;;;5111639;28;20327;-72
2024/01/25 10:18:55;;;;;;;3.97;3.03;;;8.40;70.10;;;;;;5077314;28;20438;-71
2024/01/25 10:21:21;;;;;;;3.35;3.05;;;8.40;70.10;;;;;;5095373;28;20023;-73
2024/01/25 10:23:48;;;;;;;4.93;3.45;;;8.40;70.10;;;;;;5094720;28;20519;-72
2024/01/25 10:26:14;;;;;;;3.72;3.05;;;8.40;70.10;;;;;;5076907;28;20130;-73
2024/01/25 10:28:40;;;;;;;3.67;2.85;;;8.40;70.10;;;;;;5095193;28;20060;-73
2024/01/25 10:31:07;;;;;;;3.75;3.08;;;8.50;70.10;;;;;;5094958;28;20055;-73
2024/01/25 10:33:34;;;;;;;3.72;2.95;;;8.40;70.00;;;;;;5094637;28;20024;-74
2024/01/25 10:36:03;;;;;;;3.55;3.13;;;8.40;70.00;;;;;;5094968;28;20056;-74
2024/01/25 10:38:34;;;;;;;3.95;2.88;;;8.50;70.10;;;;;;5094835;28;20099;-73
2024/01/25 10:41:02;;;;;;;3.50;2.85;;;8.40;70.00;;;;;;5094471;28;20027;-73
2024/01/25 10:43:32;;;;;;;4.28;3.17;;;8.50;70.00;;;;;;5076522;28;20031;-74
2024/01/25 10:45:59;;;;;;;3.85;3.00;;;8.40;70.00;;;;;;5094795;28;20032;-71
2024/01/25 10:48:26;;;;;;;3.75;2.97;;;8.40;70.10;;;;;;5077354;28;20028;-76
2024/01/25 10:50:55;;;;;;;3.17;2.70;;;8.40;70.10;;;;;;5094786;28;20084;-76
2024/01/25 10:53:26;;;;;;;3.10;2.70;;;8.40;70.00;;;;;;5077605;28;20024;-76
2024/01/25 10:55:52;;;;;;;4.07;2.85;;;8.40;70.00;;;;;;5096091;28;20051;-74
2024/01/25 10:58:18;;;;;;;4.10;3.00;;;8.40;70.00;;;;;;5077216;28;20019;-73
2024/01/25 11:00:58;;;;;;;4.00;3.08;;;8.40;70.00;;;;;;5094073;28;20106;-74
2024/01/25 11:03:30;;;;;;;3.45;3.05;;;8.30;70.10;;;;;;5110094;28;20446;-75
2024/01/25 11:06:08;;;;;;;4.18;3.30;;;8.40;70.20;;;;;;5109944;28;20074;-73
2024/01/25 11:08:34;;;;;;;4.20;3.28;;;8.40;70.20;;;;;;5094389;28;20024;-74
2024/01/25 11:11:00;;;;;;;4.00;2.90;;;8.30;70.20;;;;;;5110051;28;20070;-73
2024/01/25 11:13:32;;;;;;;3.72;3.15;;;8.30;70.20;;;;;;5094322;28;20055;-73
2024/01/25 11:15:58;;;;;;;3.78;3.13;;;8.30;70.30;;;;;;5110052;28;20024;-73
2024/01/25 11:18:26;;;;;;;3.92;3.00;;;8.30;70.30;;;;;;5093900;28;20035;-74
2024/01/25 11:20:52;;;;;;;3.17;2.83;;;8.30;70.40;;;;;;5094184;28;20084;-75
2024/01/25 11:23:18;;;;;;;4.75;3.00;;;8.20;70.50;;;;;;5075987;28;20016;-76
2024/01/25 11:25:47;;;;;;;3.75;3.00;;;8.20;70.50;;;;;;5093361;28;20066;-74
2024/01/25 11:28:16;;;;;;;4.18;3.05;;;8.20;70.60;;;;;;5094486;28;20071;-74
2024/01/25 11:30:42;;;;;;;3.30;2.90;;;8.20;70.60;;;;;;5075831;28;20024;-74
2024/01/25 11:33:08;;;;;;;3.40;3.10;;;8.20;70.70;;;;;;5093782;28;20020;-73
2024/01/25 11:35:35;;;;;;;3.22;2.92;;;8.20;70.70;;;;;;5075623;28;20082;-75
2024/01/25 11:38:01;;;;;;;3.40;2.90;;;8.20;70.70;;;;;;5075842;28;20020;-75
2024/01/25 11:40:31;;;;;;;3.95;3.10;;;8.20;70.80;;;;;;5093729;28;20649;-74
2024/01/25 11:42:57;;;;;;;3.55;3.20;;;8.20;70.80;;;;;;5078245;28;20115;-76
2024/01/25 11:45:22;;;;;;;4.10;3.08;;;8.10;70.80;;;;;;5077990;28;20043;-76
2024/01/25 11:47:50;;;;;;;3.45;2.90;;;8.10;70.80;;;;;;5094950;28;20025;-76
2024/01/25 11:50:16;;;;;;;3.35;2.90;;;8.10;70.90;;;;;;5096350;28;20027;-74
2024/01/25 11:52:41;;;;;;;4.03;2.78;;;8.10;71.20;;;;;;5097353;28;20019;-73
2024/01/25 11:55:09;;;;;;;3.70;2.80;;;8.10;70.90;;;;;;5098107;28;20043;-76
2024/01/25 11:57:41;;;;;;;3.45;2.92;;;8.10;71.00;;;;;;5098319;28;20019;-74
2024/01/25 12:00:13;;;;;;;3.03;2.72;;;8.10;71.00;;;;;;5098765;28;20026;-75
2024/01/25 12:02:39;;;;;;;3.63;2.90;;;8.10;71.00;;;;;;5098547;28;20020;-75
2024/01/25 12:05:06;;;;;;;3.25;2.88;;;8.10;71.00;;;;;;5079323;28;20510;-75
2024/01/25 12:07:32;;;;;;;3.40;2.75;;;8.10;71.00;;;;;;5079134;28;19912;-74
2024/01/25 12:10:10;;;;;;;5.07;2.85;;;8.10;70.90;;;;;;5079494;28;20468;-73
2024/01/25 12:12:39;;;;;;;3.47;3.00;;;8.10;70.90;;;;;;5097511;28;20024;-74
2024/01/25 12:15:07;;;;;;;3.60;2.92;;;8.10;70.90;;;;;;5097225;28;20458;-72
2024/01/25 12:17:36;;;;;;;3.20;2.90;;;8.10;70.90;;;;;;5079178;28;20074;-74
2024/01/25 12:20:02;;;;;;;3.75;3.05;;;8.10;70.90;;;;;;5079109;28;20020;-74
2024/01/25 12:22:29;;;;;;;3.53;2.70;;;8.10;71.00;;;;;;5078957;28;20115;-74
2024/01/25 12:24:56;;;;;;;3.50;2.75;;;8.10;71.00;;;;;;5097131;28;20365;-73
2024/01/25 12:27:23;;;;;;;3.40;2.90;;;8.10;70.90;;;;;;5078999;28;20454;-72
2024/01/25 12:29:50;;;;;;;2.83;2.53;;;8.20;71.00;;;;;;5097505;28;20120;-74
2024/01/25 12:32:17;;;;;;;3.40;2.70;;;8.20;70.90;;;;;;5097318;28;20354;-73
2024/01/25 12:34:52;;;;;;;2.75;2.55;;;8.20;70.90;;;;;;5097086;28;20456;-74
2024/01/25 12:37:18;;;;;;;3.20;2.90;;;8.20;70.90;;;;;;5078984;28;20035;-71
2024/01/25 12:39:43;;;;;;;3.75;2.80;;;8.20;70.90;;;;;;5078618;28;20024;-73
2024/01/25 12:42:09;;;;;;;3.13;2.80;;;8.20;70.90;;;;;;5096756;28;20438;-73
2024/01/25 12:44:35;;;;;;;3.00;2.80;;;8.20;70.90;;;;;;5097206;28;20021;-73
2024/01/25 12:47:02;;;;;;;2.78;2.58;;;8.20;70.90;;;;;;5079152;28;20073;-72
2024/01/25 12:49:28;;;;;;;4.13;2.90;;;8.20;70.90;;;;;;5097553;28;20020;-72
2024/01/25 12:51:55;;;;;;;3.45;2.92;;;8.20;70.90;;;;;;5078756;28;20027;-71